createdAt,value
2019-04-16T00:01:15.006Z,5.28
2019-04-16T00:03:43.407Z,4.87
2019-04-16T00:06:20.283Z,4.67
2019-04-16T00:08:58.362Z,4.90
2019-04-16T00:11:40.084Z,4.70
2019-04-16T00:14:18.482Z,4.80
2019-04-16T00:16:45.483Z,4.45
2019-04-16T00:19:13.740Z,4.47
2019-04-16T00:21:54.451Z,4.12
2019-04-16T00:24:32.639Z,4.87
2019-04-16T00:27:00.082Z,4.67
2019-04-16T00:29:27.094Z,4.55
2019-04-16T00:31:57.739Z,4.45
2019-04-16T00:34:24.711Z,4.45
2019-04-16T00:36:51.806Z,5.05
2019-04-16T00:39:19.267Z,4.65
2019-04-16T00:41:46.587Z,4.28
2019-04-16T00:44:14.254Z,4.65
2019-04-16T00:46:41.490Z,4.78
2019-04-16T00:49:09.115Z,4.20
2019-04-16T00:51:36.465Z,4.05
2019-04-16T00:54:04.075Z,4.58
2019-04-16T00:56:31.038Z,4.72
2019-04-16T00:58:58.017Z,3.93
2019-04-16T01:01:25.007Z,4.42
2019-04-16T01:03:52.269Z,4.67
2019-04-16T01:06:19.230Z,4.12
2019-04-16T01:08:54.555Z,4.67
2019-04-16T01:11:15.399Z,4.47
2019-04-16T01:13:56.758Z,5.03
2019-04-16T01:16:23.885Z,4.20
2019-04-16T01:18:50.994Z,4.30
2019-04-16T01:21:18.059Z,5.17
2019-04-16T01:23:48.424Z,4.55
2019-04-16T01:26:13.900Z,4.37
2019-04-16T01:28:47.423Z,4.67
2019-04-16T01:31:31.010Z,4.25
2019-04-16T01:34:07.275Z,4.17
2019-04-16T01:36:57.310Z,4.62
2019-04-16T01:39:26.904Z,3.80
2019-04-16T01:41:54.334Z,4.42
2019-04-16T01:44:21.284Z,4.28
2019-04-16T01:46:48.376Z,4.42
2019-04-16T01:49:15.375Z,4.47
2019-04-16T01:51:44.598Z,4.53
2019-04-16T01:54:12.303Z,4.90
2019-04-16T01:56:39.642Z,5.03
2019-04-16T01:59:06.611Z,4.67
2019-04-16T02:01:33.731Z,4.95
2019-04-16T02:04:00.982Z,4.87
2019-04-16T02:06:28.331Z,5.10
2019-04-16T02:08:55.340Z,4.53
2019-04-16T02:11:22.453Z,4.60
2019-04-16T02:13:49.483Z,4.03
2019-04-16T02:16:16.587Z,4.17
2019-04-16T02:18:44.396Z,4.40
2019-04-16T02:21:11.416Z,4.90
2019-04-16T02:23:38.758Z,5.03
2019-04-16T02:26:05.997Z,5.53
2019-04-16T02:28:33.315Z,4.25
2019-04-16T02:31:00.585Z,4.63
2019-04-16T02:33:28.013Z,4.35
2019-04-16T02:35:55.048Z,4.90
2019-04-16T02:38:22.032Z,4.50
2019-04-16T02:40:52.899Z,4.97
2019-04-16T02:43:18.484Z,4.83
2019-04-16T02:45:45.669Z,5.33
2019-04-16T02:48:16.735Z,4.60
2019-04-16T02:50:46.451Z,4.80
2019-04-16T02:53:33.206Z,4.77
2019-04-16T02:56:29.185Z,4.33
2019-04-16T02:59:09.801Z,4.50
2019-04-16T03:01:44.690Z,4.22
2019-04-16T03:04:16.124Z,5.20
2019-04-16T03:06:43.379Z,4.80
2019-04-16T03:09:10.384Z,4.70
2019-04-16T03:11:37.500Z,4.70
2019-04-16T03:14:04.826Z,5.10
2019-04-16T03:16:39.611Z,4.72
2019-04-16T03:19:11.514Z,4.70
2019-04-16T03:21:38.819Z,4.35
2019-04-16T03:24:09.316Z,5.10
2019-04-16T03:26:35.295Z,4.92
2019-04-16T03:29:02.703Z,5.67
2019-04-16T03:31:30.529Z,4.72
2019-04-16T03:33:57.668Z,5.13
2019-04-16T03:36:26.577Z,4.67
2019-04-16T03:38:53.775Z,4.92
2019-04-16T03:41:20.987Z,4.87
2019-04-16T03:43:48.202Z,4.83
2019-04-16T03:46:15.192Z,4.37
2019-04-16T03:48:43.293Z,4.50
2019-04-16T03:51:10.714Z,4.90
2019-04-16T03:53:37.918Z,4.87
2019-04-16T03:56:05.041Z,4.83
2019-04-16T03:58:32.284Z,4.40
2019-04-16T04:00:59.255Z,5.22
2019-04-16T04:03:26.920Z,4.83
2019-04-16T04:05:54.925Z,4.73
2019-04-16T04:08:22.512Z,5.23
2019-04-16T04:10:49.908Z,4.97
2019-04-16T04:13:18.780Z,5.17
2019-04-16T04:15:46.286Z,4.80
2019-04-16T04:18:13.472Z,5.40
2019-04-16T04:20:40.722Z,4.83
2019-04-16T04:23:07.916Z,4.57
2019-04-16T04:25:36.968Z,5.50
2019-04-16T04:28:04.571Z,5.03
2019-04-16T04:30:31.687Z,4.95
2019-04-16T04:32:59.102Z,4.60
2019-04-16T04:35:26.237Z,5.70
2019-04-16T04:37:53.388Z,4.97
2019-04-16T04:40:20.391Z,5.10
2019-04-16T04:42:48.371Z,4.70
2019-04-16T04:45:15.487Z,4.23
2019-04-16T04:47:42.939Z,5.62
2019-04-16T04:50:10.439Z,6.00
2019-04-16T04:52:37.693Z,4.90
2019-04-16T04:55:05.076Z,5.00
2019-04-16T04:57:32.077Z,6.03
2019-04-16T04:59:59.171Z,5.05
2019-04-16T05:02:26.126Z,6.00
2019-04-16T05:04:58.264Z,5.53
2019-04-16T05:07:25.769Z,5.47
2019-04-16T05:09:54.700Z,5.20
2019-04-16T05:12:22.334Z,5.25
2019-04-16T05:14:57.155Z,5.20
2019-04-16T05:17:26.505Z,5.97
2019-04-16T05:19:53.929Z,5.55
2019-04-16T05:22:22.051Z,5.77
2019-04-16T05:24:49.710Z,5.28
2019-04-16T05:27:16.777Z,5.87
2019-04-16T05:29:48.608Z,5.58
2019-04-16T05:32:13.386Z,5.83
2019-04-16T05:34:40.568Z,5.73
2019-04-16T05:37:07.648Z,5.67
2019-04-16T05:39:34.832Z,5.28
2019-04-16T05:42:01.929Z,5.03
2019-04-16T05:44:33.029Z,5.37
2019-04-16T05:46:57.931Z,5.78
2019-04-16T05:49:26.179Z,5.40
2019-04-16T05:51:53.647Z,4.70
2019-04-16T05:54:33.718Z,5.00
2019-04-16T05:57:01.016Z,5.55
2019-04-16T05:59:28.054Z,4.53
2019-04-16T06:02:15.012Z,5.72
2019-04-16T06:04:41.396Z,4.53
2019-04-16T06:07:08.453Z,5.00
2019-04-16T06:09:35.731Z,6.40
2019-04-16T06:12:05.911Z,7.17
2019-04-16T06:14:46.411Z,5.15
2019-04-16T06:17:42.196Z,5.53
2019-04-16T06:20:21.076Z,5.20
2019-04-16T06:23:19.629Z,5.40
2019-04-16T06:25:50.284Z,5.35
2019-04-16T06:28:36.168Z,5.20
2019-04-16T06:31:10.152Z,4.95
2019-04-16T06:33:41.695Z,5.45
2019-04-16T06:36:31.284Z,5.58
2019-04-16T06:39:16.527Z,6.10
2019-04-16T06:41:52.826Z,4.58
2019-04-16T06:44:22.126Z,5.55
2019-04-16T06:46:57.041Z,5.45
2019-04-16T06:49:39.421Z,5.58
2019-04-16T06:52:18.073Z,5.33
2019-04-16T06:54:56.403Z,5.35
2019-04-16T06:57:31.266Z,4.83
2019-04-16T07:00:07.433Z,5.55
2019-04-16T07:03:02.457Z,5.67
2019-04-16T07:05:34.021Z,4.83
2019-04-16T07:08:19.991Z,4.90
2019-04-16T07:10:58.072Z,5.12
2019-04-16T07:13:25.198Z,5.55
2019-04-16T07:15:56.416Z,5.67
2019-04-16T07:18:21.572Z,5.35
2019-04-16T07:20:48.751Z,5.47
2019-04-16T07:23:15.781Z,5.33
2019-04-16T07:25:44.218Z,5.53
2019-04-16T07:28:25.154Z,5.20
2019-04-16T07:31:14.860Z,4.78
2019-04-16T07:34:06.943Z,5.30
2019-04-16T07:37:00.737Z,7.80
2019-04-16T07:39:54.106Z,5.90
2019-04-16T07:42:51.281Z,6.35
2019-04-16T07:45:30.980Z,5.42
2019-04-16T07:48:07.866Z,5.40
2019-04-16T07:50:53.288Z,5.42
2019-04-16T07:53:38.873Z,5.53
2019-04-16T07:56:11.499Z,5.30
2019-04-16T07:58:38.601Z,5.58
2019-04-16T08:01:05.679Z,5.17
2019-04-16T08:03:32.862Z,5.05
2019-04-16T08:06:00.226Z,5.10
2019-04-16T08:08:27.476Z,5.62
2019-04-16T08:10:54.491Z,6.83
2019-04-16T08:13:23.108Z,6.25
2019-04-16T08:15:50.415Z,5.62
2019-04-16T08:18:17.864Z,5.15
2019-04-16T08:20:44.822Z,5.28
2019-04-16T08:23:30.213Z,6.05
2019-04-16T08:26:03.596Z,6.08
2019-04-16T08:28:27.420Z,6.15
2019-04-16T08:30:54.367Z,6.37
2019-04-16T08:33:21.331Z,5.62
2019-04-16T08:35:48.613Z,6.30
2019-04-16T08:38:15.956Z,6.72
2019-04-16T08:40:46.059Z,5.90
2019-04-16T08:43:12.825Z,6.42
2019-04-16T08:45:40.016Z,6.20
2019-04-16T08:48:09.106Z,7.20
2019-04-16T08:50:36.508Z,5.70
2019-04-16T08:53:03.612Z,6.53
2019-04-16T08:55:30.631Z,7.65
2019-04-16T08:57:58.231Z,6.30
2019-04-16T09:00:25.209Z,6.40
2019-04-16T09:02:52.186Z,6.75
2019-04-16T09:05:19.377Z,6.85
2019-04-16T09:07:50.641Z,6.65
2019-04-16T09:10:23.090Z,7.60
2019-04-16T09:13:01.948Z,6.53
2019-04-16T09:15:20.563Z,7.20
2019-04-16T09:17:50.094Z,6.42
2019-04-16T09:20:22.818Z,6.05
2019-04-16T09:22:49.690Z,6.28
2019-04-16T09:25:46.638Z,6.62
2019-04-16T09:28:25.814Z,8.00
2019-04-16T09:31:09.940Z,7.33
2019-04-16T09:33:44.128Z,6.92
2019-04-16T09:36:22.438Z,7.03
2019-04-16T09:38:53.893Z,6.25
2019-04-16T09:41:29.965Z,6.78
2019-04-16T09:43:58.184Z,6.80
2019-04-16T09:46:49.187Z,6.97
2019-04-16T09:48:55.622Z,6.35
2019-04-16T09:51:25.584Z,7.35
2019-04-16T09:53:52.188Z,6.75
2019-04-16T09:56:29.917Z,7.35
2019-04-16T09:59:02.105Z,7.15
2019-04-16T10:01:38.843Z,6.65
2019-04-16T10:04:07.611Z,6.62
2019-04-16T10:06:35.171Z,6.78
2019-04-16T10:09:04.088Z,7.30
2019-04-16T10:11:32.773Z,6.62
2019-04-16T10:14:00.747Z,9.18
2019-04-16T10:16:29.153Z,6.80
2019-04-16T10:18:56.236Z,7.15
2019-04-16T10:21:23.670Z,8.05
2019-04-16T10:24:03.778Z,7.70
2019-04-16T10:26:31.068Z,7.40
2019-04-16T10:28:59.637Z,7.00
2019-04-16T10:31:27.147Z,7.67
2019-04-16T10:33:57.179Z,6.75
2019-04-16T10:36:24.816Z,7.08
2019-04-16T10:39:15.818Z,6.30
2019-04-16T10:42:11.504Z,7.85
2019-04-16T10:45:01.311Z,7.22
2019-04-16T10:47:47.347Z,7.30
2019-04-16T10:50:37.215Z,6.90
2019-04-16T10:53:22.676Z,7.35
2019-04-16T10:56:09.372Z,7.17
2019-04-16T10:58:53.934Z,6.85
2019-04-16T11:01:35.013Z,6.55
2019-04-16T11:04:20.819Z,6.85
2019-04-16T11:06:49.053Z,7.75
2019-04-16T11:09:16.350Z,10.85
2019-04-16T11:11:43.650Z,13.15
2019-04-16T11:14:10.869Z,9.23
2019-04-16T11:16:39.640Z,7.92
2019-04-16T11:19:06.862Z,7.33
2019-04-16T11:21:34.050Z,7.92
2019-04-16T11:24:01.184Z,7.70
2019-04-16T11:26:28.383Z,8.45
2019-04-16T11:28:55.528Z,7.22
2019-04-16T11:31:23.460Z,7.22
2019-04-16T11:33:50.471Z,7.17
2019-04-16T11:36:20.726Z,6.55
2019-04-16T11:38:46.887Z,7.10
2019-04-16T11:41:14.071Z,6.33
2019-04-16T11:43:41.182Z,7.20
2019-04-16T11:46:08.585Z,7.10
2019-04-16T11:48:37.461Z,7.30
2019-04-16T11:51:04.696Z,6.90
2019-04-16T11:53:32.186Z,6.05
2019-04-16T11:55:59.592Z,6.60
2019-04-16T11:58:32.887Z,6.95
2019-04-16T12:01:13.448Z,7.00
2019-04-16T12:04:03.130Z,6.30
2019-04-16T12:06:57.217Z,6.08
2019-04-16T12:09:42.400Z,6.60
2019-04-16T12:12:16.891Z,6.25
2019-04-16T12:15:02.156Z,6.33
2019-04-16T12:17:39.925Z,7.12
2019-04-16T12:20:18.352Z,6.17
2019-04-16T12:23:11.013Z,7.22
2019-04-16T12:25:58.075Z,6.33
2019-04-16T12:28:47.846Z,6.20
2019-04-16T12:31:25.608Z,7.17
2019-04-16T12:34:24.714Z,6.97
2019-04-16T12:37:20.926Z,6.62
2019-04-16T12:40:02.473Z,6.80
2019-04-16T12:42:42.249Z,7.08
2019-04-16T12:45:29.940Z,6.12
2019-04-16T12:48:20.493Z,6.53
2019-04-16T12:51:06.275Z,5.05
2019-04-16T12:53:53.050Z,6.33
2019-04-16T12:56:41.368Z,6.62
2019-04-16T12:59:23.018Z,6.03
2019-04-16T13:01:58.131Z,5.58
2019-04-16T13:04:39.942Z,5.72
2019-04-16T13:07:14.044Z,5.28
2019-04-16T13:10:00.977Z,5.87
2019-04-16T13:12:46.648Z,5.62
2019-04-16T13:15:39.472Z,6.00
2019-04-16T13:18:13.611Z,6.25
2019-04-16T13:21:03.974Z,5.75
2019-04-16T13:23:51.202Z,6.45
2019-04-16T13:26:29.961Z,6.65
2019-04-16T13:28:57.787Z,6.40
2019-04-16T13:31:24.875Z,5.78
2019-04-16T13:33:52.189Z,6.85
2019-04-16T13:36:19.184Z,5.87
2019-04-16T13:38:51.815Z,6.05
2019-04-16T13:41:18.999Z,7.42
2019-04-16T13:43:50.063Z,6.25
2019-04-16T13:46:17.158Z,7.62
2019-04-16T13:48:59.678Z,7.25
2019-04-16T13:51:27.326Z,6.90
2019-04-16T13:54:16.566Z,7.03
2019-04-16T13:56:50.174Z,6.33
2019-04-16T13:59:20.127Z,6.60
2019-04-16T14:01:52.281Z,6.40
2019-04-16T14:04:19.255Z,6.75
2019-04-16T14:06:46.511Z,7.00
2019-04-16T14:09:13.923Z,6.55
2019-04-16T14:11:40.970Z,7.53
2019-04-16T14:14:08.497Z,6.42
2019-04-16T14:16:35.910Z,6.42
2019-04-16T14:19:06.152Z,6.05
2019-04-16T14:21:32.268Z,5.85
2019-04-16T14:23:59.689Z,6.20
2019-04-16T14:26:26.785Z,6.33
2019-04-16T14:28:56.882Z,5.28
2019-04-16T14:31:25.030Z,5.97
2019-04-16T14:33:59.413Z,5.45
2019-04-16T14:36:26.436Z,5.08
2019-04-16T14:38:56.244Z,4.90
2019-04-16T14:41:23.612Z,6.17
2019-04-16T14:43:55.472Z,5.05
2019-04-16T14:46:22.697Z,5.10
2019-04-16T14:48:49.751Z,4.95
2019-04-16T14:51:16.902Z,5.30
2019-04-16T14:53:53.866Z,4.97
2019-04-16T14:56:27.024Z,5.50
2019-04-16T14:59:02.532Z,5.28
2019-04-16T15:01:52.096Z,6.65
2019-04-16T15:04:29.817Z,5.90
2019-04-16T15:07:06.511Z,5.60
2019-04-16T15:09:52.424Z,5.95
2019-04-16T15:12:23.969Z,5.67
2019-04-16T15:14:55.590Z,6.67
2019-04-16T15:17:52.027Z,5.47
2019-04-16T15:20:38.982Z,5.58
2019-04-16T15:23:16.533Z,5.80
2019-04-16T15:26:10.689Z,5.62
2019-04-16T15:28:45.550Z,5.05
2019-04-16T15:31:38.610Z,6.10
2019-04-16T15:34:14.458Z,5.60
2019-04-16T15:36:51.870Z,5.47
2019-04-16T15:39:28.428Z,5.92
2019-04-16T15:42:17.230Z,6.05
2019-04-16T15:44:52.706Z,10.23
2019-04-16T15:47:47.964Z,7.70
2019-04-16T15:50:35.174Z,7.80
2019-04-16T15:53:01.898Z,6.70
2019-04-16T15:55:48.578Z,6.90
2019-04-16T15:58:21.719Z,7.15
2019-04-16T16:00:56.855Z,7.12
2019-04-16T16:03:41.575Z,7.95
2019-04-16T16:06:12.217Z,7.55
2019-04-16T16:08:59.131Z,8.38
2019-04-16T16:11:32.075Z,7.55
2019-04-16T16:14:00.379Z,8.40
2019-04-16T16:16:41.022Z,8.28
2019-04-16T16:18:57.209Z,9.30
2019-04-16T16:21:24.391Z,9.08
2019-04-16T16:23:51.674Z,8.15
2019-04-16T16:26:18.658Z,8.98
2019-04-16T16:28:45.643Z,8.40
2019-04-16T16:31:12.860Z,8.78
2019-04-16T16:33:40.280Z,8.85
2019-04-16T16:36:08.153Z,8.55
2019-04-16T16:38:35.224Z,9.25
2019-04-16T16:41:02.212Z,9.00
2019-04-16T16:43:29.292Z,9.28
2019-04-16T16:46:04.798Z,8.60
2019-04-16T16:48:31.859Z,9.08
2019-04-16T16:50:58.803Z,9.78
2019-04-16T16:53:30.879Z,10.80
2019-04-16T16:56:01.617Z,9.25
2019-04-16T16:58:50.911Z,9.05
2019-04-16T17:01:33.504Z,10.20
2019-04-16T17:04:03.066Z,9.58
2019-04-16T17:06:30.083Z,9.25
2019-04-16T17:08:57.449Z,10.28
2019-04-16T17:11:24.850Z,9.15
2019-04-16T17:13:51.919Z,9.65
2019-04-16T17:16:19.231Z,8.00
2019-04-16T17:18:46.259Z,9.13
2019-04-16T17:21:13.223Z,9.20
2019-04-16T17:23:40.511Z,8.68
2019-04-16T17:26:08.522Z,9.10
2019-04-16T17:28:35.809Z,8.50
2019-04-16T17:31:02.920Z,8.83
2019-04-16T17:33:29.876Z,8.35
2019-04-16T17:35:57.190Z,8.40
2019-04-16T17:38:24.271Z,9.25
2019-04-16T17:41:00.084Z,8.20
2019-04-16T17:44:02.220Z,7.20
2019-04-16T17:46:48.403Z,8.60
2019-04-16T17:49:22.600Z,7.85
2019-04-16T17:52:21.396Z,8.00
2019-04-16T17:55:02.617Z,7.80
2019-04-16T17:57:44.169Z,8.43
2019-04-16T18:00:37.654Z,7.42
2019-04-16T18:03:28.107Z,8.65
2019-04-16T18:06:15.240Z,8.43
2019-04-16T18:09:04.834Z,8.10
2019-04-16T18:11:55.394Z,8.70
2019-04-16T18:14:48.299Z,7.67
2019-04-16T18:17:26.493Z,10.15
2019-04-16T18:20:03.548Z,8.53
2019-04-16T18:22:41.957Z,9.58
2019-04-16T18:25:37.864Z,8.65
2019-04-16T18:28:10.218Z,9.63
2019-04-16T18:31:03.258Z,10.15
2019-04-16T18:33:33.683Z,11.20
2019-04-16T18:36:33.064Z,9.93
2019-04-16T18:39:18.500Z,9.75
2019-04-16T18:41:49.846Z,9.65
2019-04-16T18:44:34.917Z,9.05
2019-04-16T18:47:19.131Z,9.03
2019-04-16T18:49:47.084Z,9.20
2019-04-16T18:52:14.290Z,7.95
2019-04-16T18:54:41.508Z,8.60
2019-04-16T18:57:08.879Z,9.25
2019-04-16T18:59:36.436Z,8.30
2019-04-16T19:02:08.685Z,8.13
2019-04-16T19:04:34.293Z,8.10
2019-04-16T19:07:01.372Z,8.85
2019-04-16T19:09:29.819Z,9.15
2019-04-16T19:11:57.127Z,8.70
2019-04-16T19:14:24.218Z,8.63
2019-04-16T19:16:51.520Z,9.20
2019-04-16T19:19:21.872Z,8.25
2019-04-16T19:21:51.259Z,10.72
2019-04-16T19:24:16.658Z,11.15
2019-04-16T19:26:43.692Z,9.05
2019-04-16T19:29:14.494Z,9.75
2019-04-16T19:31:40.641Z,8.85
2019-04-16T19:34:10.255Z,8.25
2019-04-16T19:36:36.601Z,8.38
2019-04-16T19:39:06.594Z,8.08
2019-04-16T19:41:34.740Z,8.30
2019-04-16T19:44:06.106Z,9.03
2019-04-16T19:46:30.926Z,8.28
2019-04-16T19:49:00.325Z,9.15
2019-04-16T19:51:26.858Z,9.40
2019-04-16T19:53:54.134Z,8.18
2019-04-16T19:56:21.228Z,8.18
2019-04-16T19:58:48.989Z,8.10
2019-04-16T20:01:16.902Z,8.53
2019-04-16T20:03:43.986Z,7.85
2019-04-16T20:06:11.075Z,7.90
2019-04-16T20:08:39.945Z,8.53
2019-04-16T20:11:07.258Z,7.92
2019-04-16T20:13:34.796Z,8.20
2019-04-16T20:16:01.892Z,8.05
2019-04-16T20:18:29.490Z,8.28
2019-04-16T20:21:00.854Z,8.58
2019-04-16T20:23:27.087Z,8.10
2019-04-16T20:25:56.354Z,8.40
2019-04-16T20:28:23.639Z,7.95
2019-04-16T20:31:00.464Z,8.18
2019-04-16T20:33:22.668Z,8.00
2019-04-16T20:35:50.521Z,8.05
2019-04-16T20:38:18.475Z,8.33
2019-04-16T20:40:45.833Z,7.67
2019-04-16T20:43:14.047Z,7.58
2019-04-16T20:45:41.092Z,8.00
2019-04-16T20:48:09.070Z,8.33
2019-04-16T20:50:37.483Z,8.50
2019-04-16T20:53:07.341Z,7.45
2019-04-16T20:55:33.771Z,6.95
2019-04-16T20:58:00.943Z,7.22
2019-04-16T21:00:30.203Z,7.05
2019-04-16T21:02:57.258Z,7.22
2019-04-16T21:05:24.468Z,6.83
2019-04-16T21:07:51.740Z,6.60
2019-04-16T21:10:18.723Z,5.95
2019-04-16T21:12:46.128Z,6.22
2019-04-16T21:15:13.270Z,5.47
2019-04-16T21:17:40.306Z,5.35
2019-04-16T21:20:07.574Z,6.92
2019-04-16T21:22:34.934Z,5.83
2019-04-16T21:25:02.454Z,6.15
2019-04-16T21:27:31.608Z,6.37
2019-04-16T21:29:59.027Z,5.80
2019-04-16T21:32:48.702Z,5.53
2019-04-16T21:35:20.184Z,6.10
2019-04-16T21:38:06.894Z,6.45
2019-04-16T21:40:34.226Z,5.15
2019-04-16T21:43:06.310Z,6.47
2019-04-16T21:45:30.358Z,5.78
2019-04-16T21:47:57.594Z,5.72
2019-04-16T21:50:25.070Z,6.20
2019-04-16T21:52:55.069Z,6.37
2019-04-16T21:55:21.481Z,6.12
2019-04-16T21:57:48.816Z,6.08
2019-04-16T22:00:34.391Z,6.65
2019-04-16T22:03:09.165Z,5.70
2019-04-16T22:05:34.232Z,5.83
2019-04-16T22:08:01.833Z,6.30
2019-04-16T22:10:29.029Z,6.42
2019-04-16T22:12:56.991Z,6.22
2019-04-16T22:15:25.486Z,6.50
2019-04-16T22:17:53.175Z,7.00
2019-04-16T22:20:20.366Z,6.40
2019-04-16T22:22:47.587Z,7.17
2019-04-16T22:25:14.757Z,6.53
2019-04-16T22:27:42.056Z,6.10
2019-04-16T22:30:09.512Z,6.00
2019-04-16T22:32:36.591Z,6.50
2019-04-16T22:35:04.273Z,6.37
2019-04-16T22:37:31.424Z,6.40
2019-04-16T22:40:29.050Z,6.28
2019-04-16T22:43:15.980Z,7.25
2019-04-16T22:45:52.299Z,6.37
2019-04-16T22:48:20.178Z,6.25
2019-04-16T22:50:47.244Z,6.30
2019-04-16T22:53:16.999Z,6.80
2019-04-16T22:55:43.446Z,6.60
2019-04-16T22:58:22.349Z,6.87
2019-04-16T23:00:49.461Z,7.25
2019-04-16T23:03:19.497Z,6.47
2019-04-16T23:05:45.499Z,6.85
2019-04-16T23:08:13.073Z,6.58
2019-04-16T23:10:40.350Z,6.28
2019-04-16T23:13:07.335Z,6.85
2019-04-16T23:15:34.542Z,6.25
2019-04-16T23:18:01.567Z,7.20
2019-04-16T23:20:30.091Z,6.87
2019-04-16T23:22:57.546Z,6.83
2019-04-16T23:25:27.306Z,6.87
2019-04-16T23:27:53.726Z,7.15
2019-04-16T23:30:20.786Z,7.00
2019-04-16T23:32:47.787Z,6.90
2019-04-16T23:35:14.758Z,7.83
2019-04-16T23:37:41.719Z,7.95
2019-04-16T23:40:11.354Z,7.80
2019-04-16T23:42:40.486Z,7.17
2019-04-16T23:45:21.866Z,7.92
2019-04-16T23:47:59.185Z,7.70
2019-04-16T23:50:44.929Z,8.18
2019-04-16T23:53:11.903Z,8.68
2019-04-16T23:56:04.199Z,7.25
2019-04-16T23:58:37.879Z,7.53
